createdAt,value
2018-04-01T00:01:25.130Z,1.60
2018-04-01T00:03:52.382Z,1.50
2018-04-01T00:06:19.738Z,1.80
2018-04-01T00:08:47.105Z,1.42
2018-04-01T00:11:14.449Z,1.70
2018-04-01T00:13:41.804Z,1.55
2018-04-01T00:16:09.164Z,1.60
2018-04-01T00:18:36.515Z,1.70
2018-04-01T00:21:03.870Z,1.80
2018-04-01T00:23:31.225Z,1.80
2018-04-01T00:25:58.580Z,1.55
2018-04-01T00:28:25.935Z,1.65
2018-04-01T00:30:53.293Z,1.42
2018-04-01T00:33:20.653Z,1.98
2018-04-01T00:35:48.812Z,1.62
2018-04-01T00:38:16.179Z,1.50
2018-04-01T00:40:43.532Z,1.90
2018-04-01T00:43:10.886Z,1.90
2018-04-01T00:45:38.244Z,1.65
2018-04-01T00:48:05.597Z,1.80
2018-04-01T00:50:32.953Z,1.50
2018-04-01T00:53:00.307Z,2.50
2018-04-01T00:55:27.663Z,1.98
2018-04-01T00:57:55.018Z,1.70
2018-04-01T01:00:22.374Z,2.35
2018-04-01T01:02:49.729Z,1.90
2018-04-01T01:05:17.084Z,2.65
2018-04-01T01:07:44.440Z,2.00
2018-04-01T01:10:11.827Z,1.80
2018-04-01T01:12:39.150Z,2.00
2018-04-01T01:15:06.505Z,1.80
2018-04-01T01:17:33.862Z,1.80
2018-04-01T01:20:01.216Z,1.70
2018-04-01T01:22:28.752Z,1.95
2018-04-01T01:24:56.955Z,1.75
2018-04-01T01:27:24.306Z,1.80
2018-04-01T01:29:51.665Z,2.20
2018-04-01T01:32:19.019Z,1.70
2018-04-01T01:34:46.372Z,1.80
2018-04-01T01:37:13.728Z,2.00
2018-04-01T01:39:41.082Z,2.03
2018-04-01T01:42:08.438Z,2.00
2018-04-01T01:44:35.794Z,2.00
2018-04-01T01:47:03.149Z,2.00
2018-04-01T01:49:30.503Z,1.98
2018-04-01T01:51:57.862Z,2.10
2018-04-01T01:54:25.216Z,2.30
2018-04-01T01:56:52.570Z,1.90
2018-04-01T01:59:19.926Z,2.50
2018-04-01T02:01:47.280Z,2.50
2018-04-01T02:04:14.636Z,2.80
2018-04-01T02:06:41.993Z,2.78
2018-04-01T02:09:09.348Z,3.00
2018-04-01T02:11:36.702Z,2.87
2018-04-01T02:14:04.057Z,2.42
2018-04-01T02:16:31.412Z,2.80
2018-04-01T02:18:58.768Z,2.78
2018-04-01T02:21:26.229Z,2.45
2018-04-01T02:23:53.582Z,3.10
2018-04-01T02:26:20.937Z,2.50
2018-04-01T02:28:48.293Z,2.67
2018-04-01T02:31:15.649Z,2.60
2018-04-01T02:33:42.905Z,2.95
2018-04-01T02:36:10.256Z,2.40
2018-04-01T02:38:37.613Z,2.60
2018-04-01T02:41:04.966Z,3.22
2018-04-01T02:43:32.322Z,2.80
2018-04-01T02:46:00.394Z,2.53
2018-04-01T02:48:27.749Z,2.90
2018-04-01T02:50:55.115Z,3.20
2018-04-01T02:53:22.460Z,3.42
2018-04-01T02:55:49.815Z,3.10
2018-04-01T02:58:17.226Z,2.87
2018-04-01T03:00:45.345Z,2.83
2018-04-01T03:03:12.700Z,2.60
2018-04-01T03:05:40.057Z,3.00
2018-04-01T03:08:07.412Z,2.85
2018-04-01T03:10:34.766Z,3.10
2018-04-01T03:13:02.121Z,2.83
2018-04-01T03:15:29.476Z,2.97
2018-04-01T03:17:56.834Z,2.67
2018-04-01T03:20:24.192Z,3.70
2018-04-01T03:22:51.542Z,2.62
2018-04-01T03:25:18.898Z,3.40
2018-04-01T03:27:46.253Z,3.35
2018-04-01T03:30:13.610Z,2.60
2018-04-01T03:32:40.964Z,2.60
2018-04-01T03:35:08.323Z,3.10
2018-04-01T03:37:35.679Z,2.72
2018-04-01T03:40:03.030Z,2.30
2018-04-01T03:42:30.386Z,2.58
2018-04-01T03:44:57.740Z,2.78
2018-04-01T03:47:25.096Z,2.85
2018-04-01T03:49:52.452Z,3.00
2018-04-01T03:52:19.807Z,3.17
2018-04-01T03:54:47.162Z,3.72
2018-04-01T03:57:14.518Z,3.37
2018-04-01T03:59:41.871Z,4.57
2018-04-01T04:02:09.227Z,3.80
2018-04-01T04:04:36.582Z,3.85
2018-04-01T04:07:03.939Z,4.20
2018-04-01T04:09:31.298Z,3.95
2018-04-01T04:11:58.648Z,3.90
2018-04-01T04:14:26.005Z,3.78
2018-04-01T04:16:53.360Z,4.10
2018-04-01T04:19:20.716Z,3.87
2018-04-01T04:21:48.078Z,3.80
2018-04-01T04:24:15.427Z,4.37
2018-04-01T04:26:42.780Z,4.30
2018-04-01T04:29:10.136Z,4.50
2018-04-01T04:31:37.492Z,4.87
2018-04-01T04:34:04.846Z,3.72
2018-04-01T04:36:32.238Z,3.90
2018-04-01T04:39:00.376Z,4.90
2018-04-01T04:41:27.731Z,4.35
2018-04-01T04:43:55.086Z,4.65
2018-04-01T04:46:22.448Z,4.10
2018-04-01T04:48:49.797Z,3.90
2018-04-01T04:51:17.153Z,3.80
2018-04-01T04:53:44.508Z,4.30
2018-04-01T04:56:11.867Z,4.20
2018-04-01T04:58:39.218Z,4.80
2018-04-01T05:01:06.574Z,4.75
2018-04-01T05:03:33.859Z,4.60
2018-04-01T05:06:02.001Z,5.80
2018-04-01T05:08:29.358Z,5.50
2018-04-01T05:10:56.713Z,5.70
2018-04-01T05:13:24.070Z,5.93
2018-04-01T05:15:51.427Z,6.22
2018-04-01T05:18:18.781Z,6.40
2018-04-01T05:20:47.814Z,7.32
2018-04-01T05:23:15.946Z,6.18
2018-04-01T05:25:43.302Z,7.20
2018-04-01T05:28:10.657Z,6.85
2018-04-01T05:30:38.012Z,7.20
2018-04-01T05:33:05.370Z,7.68
2018-04-01T05:35:32.723Z,6.70
2018-04-01T05:38:00.078Z,7.00
2018-04-01T05:40:27.432Z,6.55
2018-04-01T05:42:54.789Z,7.43
2018-04-01T05:45:22.143Z,7.03
2018-04-01T05:47:49.499Z,6.37
2018-04-01T05:50:16.856Z,7.20
2018-04-01T05:52:44.210Z,7.00
2018-04-01T05:55:11.565Z,8.20
2018-04-01T05:57:38.921Z,6.78
2018-04-01T06:00:06.276Z,6.97
2018-04-01T06:02:33.558Z,7.70
2018-04-01T06:05:00.884Z,6.90
2018-04-01T06:07:29.554Z,7.00
2018-04-01T06:09:56.927Z,7.87
2018-04-01T06:12:24.281Z,7.72
2018-04-01T06:14:51.636Z,8.43
2018-04-01T06:17:18.991Z,8.23
2018-04-01T06:19:46.347Z,8.30
2018-04-01T06:22:13.702Z,8.18
2018-04-01T06:24:41.058Z,8.25
2018-04-01T06:27:08.413Z,8.80
2018-04-01T06:29:35.769Z,8.95
2018-04-01T06:32:03.124Z,9.75
2018-04-01T06:34:30.478Z,9.85
2018-04-01T06:36:57.834Z,9.60
2018-04-01T06:39:25.194Z,9.60
2018-04-01T06:41:52.547Z,9.38
2018-04-01T06:44:19.902Z,10.30
2018-04-01T06:46:47.258Z,10.02
2018-04-01T06:49:14.611Z,7.85
2018-04-01T06:51:41.966Z,6.80
2018-04-01T06:54:09.322Z,5.85
2018-04-01T06:56:36.676Z,5.82
2018-04-01T06:59:04.850Z,4.57
2018-04-01T07:01:32.207Z,4.70
2018-04-01T07:03:59.562Z,4.18
2018-04-01T07:06:26.917Z,4.30
2018-04-01T07:08:54.272Z,4.45
2018-04-01T07:11:21.632Z,4.30
2018-04-01T07:13:48.982Z,4.78
2018-04-01T07:16:16.337Z,5.28
2018-04-01T07:18:43.694Z,5.15
2018-04-01T07:21:11.049Z,5.03
2018-04-01T07:23:38.408Z,7.18
2018-04-01T07:26:05.760Z,7.45
2018-04-01T07:28:33.119Z,7.82
2018-04-01T07:31:00.470Z,8.43
2018-04-01T07:33:27.826Z,8.30
2018-04-01T07:35:57.359Z,9.15
2018-04-01T07:38:27.486Z,9.00
2018-04-01T07:40:55.011Z,10.35
2018-04-01T07:43:22.366Z,10.02
2018-04-01T07:45:49.721Z,10.68
2018-04-01T07:48:17.078Z,8.93
2018-04-01T07:50:45.150Z,9.35
2018-04-01T07:53:12.506Z,9.55
2018-04-01T07:55:39.861Z,10.73
2018-04-01T07:58:07.220Z,10.57
2018-04-01T08:00:34.571Z,10.82
2018-04-01T08:03:01.935Z,10.32
2018-04-01T08:05:29.281Z,11.40
2018-04-01T08:07:56.637Z,13.65
2018-04-01T08:10:24.037Z,11.20
2018-04-01T08:12:52.169Z,11.45
2018-04-01T08:15:19.727Z,11.10
2018-04-01T08:17:47.205Z,11.85
2018-04-01T08:20:15.052Z,12.85
2018-04-01T08:22:42.407Z,10.52
2018-04-01T08:25:09.762Z,10.05
2018-04-01T08:27:37.322Z,12.13
2018-04-01T08:30:04.677Z,10.23
2018-04-01T08:32:32.033Z,11.48
2018-04-01T08:34:59.390Z,9.95
2018-04-01T08:37:28.075Z,10.75
2018-04-01T08:39:56.351Z,10.77
2018-04-01T08:42:23.707Z,9.65
2018-04-01T08:44:51.074Z,9.43
2018-04-01T08:47:18.418Z,9.90
2018-04-01T08:49:45.774Z,8.88
2018-04-01T08:52:13.134Z,9.68
2018-04-01T08:54:40.484Z,9.52
2018-04-01T08:57:07.840Z,8.43
2018-04-01T08:59:35.208Z,8.70
2018-04-01T09:02:03.369Z,9.25
2018-04-01T09:04:30.724Z,9.18
2018-04-01T09:06:58.081Z,9.15
2018-04-01T09:09:26.667Z,9.68
2018-04-01T09:11:54.672Z,9.13
2018-04-01T09:14:22.911Z,8.15
2018-04-01T09:16:51.822Z,6.28
2018-04-01T09:19:19.160Z,6.87
2018-04-01T09:21:46.513Z,5.87
2018-04-01T09:24:13.867Z,6.87
2018-04-01T09:26:41.223Z,5.43
2018-04-01T09:29:08.577Z,5.53
2018-04-01T09:31:35.933Z,5.18
2018-04-01T09:34:03.289Z,5.55
2018-04-01T09:36:30.644Z,6.15
2018-04-01T09:38:58.001Z,6.22
2018-04-01T09:41:25.354Z,5.95
2018-04-01T09:43:52.710Z,6.07
2018-04-01T09:46:20.065Z,4.62
2018-04-01T09:48:47.637Z,4.90
2018-04-01T09:51:14.981Z,5.30
2018-04-01T09:53:42.337Z,5.43
2018-04-01T09:56:09.693Z,5.60
2018-04-01T09:58:37.046Z,5.65
2018-04-01T10:01:04.913Z,5.15
2018-04-01T10:03:32.782Z,5.35
2018-04-01T10:06:00.652Z,6.50
2018-04-01T10:08:28.517Z,5.97
2018-04-01T10:10:56.384Z,5.75
2018-04-01T10:13:24.282Z,6.55
2018-04-01T10:15:52.838Z,5.70
2018-04-01T10:18:21.450Z,6.20
2018-04-01T10:20:49.285Z,5.10
2018-04-01T10:23:17.153Z,5.78
2018-04-01T10:25:45.021Z,5.50
2018-04-01T10:28:12.888Z,5.65
2018-04-01T10:30:40.755Z,5.75
2018-04-01T10:33:08.621Z,5.55
2018-04-01T10:35:36.490Z,5.15
2018-04-01T10:38:04.413Z,5.43
2018-04-01T10:40:32.947Z,3.37
2018-04-01T10:43:00.707Z,2.75
2018-04-01T10:45:28.574Z,2.65
2018-04-01T10:47:56.441Z,4.00
2018-04-01T10:50:25.425Z,4.12
2018-04-01T10:52:53.302Z,4.65
2018-04-01T10:55:21.742Z,4.40
2018-04-01T10:57:52.259Z,4.35
2018-04-01T11:00:19.668Z,4.70
2018-04-01T11:02:47.126Z,4.53
2018-04-01T11:05:15.765Z,5.00
2018-04-01T11:07:43.066Z,5.05
2018-04-01T11:10:12.938Z,4.95
2018-04-01T11:28:58.028Z,4.95
2018-04-01T11:31:28.208Z,5.28
2018-04-01T11:33:57.937Z,5.32
2018-04-01T11:36:28.210Z,5.10
2018-04-01T11:38:57.855Z,5.90
2018-04-01T11:41:28.186Z,5.22
2018-04-01T11:43:57.799Z,5.05
2018-04-01T11:46:25.320Z,5.57
2018-04-01T11:48:52.529Z,5.30
2018-04-01T11:51:19.826Z,5.80
2018-04-01T11:53:47.185Z,5.82
2018-04-01T11:56:14.675Z,5.55
2018-04-01T11:58:42.916Z,5.57
2018-04-01T12:01:10.475Z,5.85
2018-04-01T12:03:37.831Z,5.10
2018-04-01T12:06:05.187Z,5.43
2018-04-01T12:08:32.543Z,5.53
2018-04-01T12:11:00.716Z,4.90
2018-04-01T12:13:28.073Z,4.50
2018-04-01T12:15:55.426Z,3.97
2018-04-01T12:18:22.800Z,3.42
2018-04-01T12:20:50.445Z,2.62
2018-04-01T12:23:17.800Z,3.62
2018-04-01T12:25:45.156Z,3.20
2018-04-01T12:28:12.817Z,4.37
2018-04-01T12:30:40.178Z,4.35
2018-04-01T12:33:07.532Z,5.85
2018-04-01T12:35:34.884Z,5.30
2018-04-01T12:38:02.241Z,4.18
2018-04-01T12:40:29.522Z,5.30
2018-04-01T12:42:56.740Z,5.32
2018-04-01T12:45:23.967Z,5.35
2018-04-01T12:47:51.177Z,5.10
2018-04-01T12:50:18.676Z,5.12
2018-04-01T12:52:45.898Z,4.20
2018-04-01T12:55:14.032Z,4.95
2018-04-01T12:57:41.389Z,4.80
2018-04-01T13:00:08.744Z,4.10
2018-04-01T13:02:36.112Z,5.32
2018-04-01T13:05:03.455Z,5.05
2018-04-01T13:07:30.666Z,4.55
2018-04-01T13:09:57.961Z,4.70
2018-04-01T13:12:25.319Z,5.53
2018-04-01T13:14:53.308Z,4.30
2018-04-01T13:17:20.954Z,4.72
2018-04-01T13:19:49.332Z,4.15
2018-04-01T13:22:16.540Z,4.05
2018-04-01T13:24:43.833Z,3.95
2018-04-01T13:27:11.187Z,4.40
2018-04-01T13:29:38.545Z,3.67
2018-04-01T13:32:05.842Z,4.10
2018-04-01T13:34:33.898Z,4.60
2018-04-01T13:37:01.891Z,4.12
2018-04-01T13:39:29.874Z,4.37
2018-04-01T13:42:00.425Z,5.12
2018-04-01T13:44:39.777Z,4.40
2018-04-01T13:47:12.164Z,4.68
2018-04-01T13:49:44.881Z,5.05
2018-04-01T13:52:13.005Z,4.75
2018-04-01T13:54:40.220Z,4.30
2018-04-01T13:57:07.620Z,4.00
2018-04-01T13:59:34.968Z,5.00
2018-04-01T14:02:02.323Z,4.87
2018-04-01T14:04:29.673Z,4.18
2018-04-01T14:06:57.034Z,3.45
2018-04-01T14:09:24.390Z,3.53
2018-04-01T14:11:51.615Z,4.40
2018-04-01T14:14:18.836Z,3.33
2018-04-01T14:16:46.813Z,3.28
2018-04-01T14:19:14.938Z,4.20
2018-04-01T14:21:42.293Z,4.50
2018-04-01T14:24:09.794Z,5.12
2018-04-01T14:26:37.112Z,5.43
2018-04-01T14:29:04.460Z,5.00
2018-04-01T14:31:37.098Z,4.65
2018-04-01T14:34:11.113Z,5.62
2018-04-01T14:36:42.846Z,6.07
2018-04-01T14:39:16.148Z,4.25
2018-04-01T14:41:49.328Z,4.72
2018-04-01T14:44:22.380Z,4.82
2018-04-01T14:46:55.090Z,4.28
2018-04-01T14:49:27.369Z,4.65
2018-04-01T14:52:00.370Z,5.03
2018-04-01T14:54:32.232Z,3.80
2018-04-01T14:57:04.795Z,3.95
2018-04-01T14:59:39.832Z,4.18
2018-04-01T15:02:10.453Z,3.60
2018-04-01T15:04:39.584Z,3.55
2018-04-01T15:07:09.207Z,3.80
2018-04-01T15:09:36.489Z,4.00
2018-04-01T15:12:03.782Z,3.70
2018-04-01T15:14:31.916Z,4.35
2018-04-01T15:16:59.271Z,3.75
2018-04-01T15:19:26.485Z,4.55
2018-04-01T15:21:53.777Z,4.80
2018-04-01T15:24:21.133Z,5.10
2018-04-01T15:26:48.346Z,4.18
2018-04-01T15:29:15.586Z,4.37
2018-04-01T15:31:43.711Z,5.50
2018-04-01T15:34:11.067Z,4.68
2018-04-01T15:36:38.289Z,5.68
2018-04-01T15:39:08.111Z,4.37
2018-04-01T15:41:37.942Z,5.07
2018-04-01T15:44:06.985Z,4.50
2018-04-01T15:46:35.113Z,4.78
2018-04-01T15:49:02.468Z,4.97
2018-04-01T15:51:29.824Z,4.60
2018-04-01T15:53:58.113Z,4.53
2018-04-01T15:56:25.333Z,4.90
2018-04-01T15:58:52.969Z,5.37
2018-04-01T16:01:23.660Z,5.50
2018-04-01T16:03:53.131Z,5.03
2018-04-01T16:06:22.549Z,5.93
2018-04-01T16:08:51.857Z,6.75
2018-04-01T16:11:22.473Z,7.57
2018-04-01T16:13:53.332Z,8.40
2018-04-01T16:16:24.124Z,8.63
2018-04-01T16:18:51.417Z,8.38
2018-04-01T16:21:18.631Z,9.60
2018-04-01T16:23:45.860Z,8.65
2018-04-01T16:26:13.835Z,8.30
2018-04-01T16:28:41.842Z,8.93
2018-04-01T16:31:09.073Z,8.60
2018-04-01T16:33:36.299Z,8.57
2018-04-01T16:36:04.302Z,7.93
2018-04-01T16:38:31.517Z,8.30
2018-04-01T16:40:58.946Z,7.07
2018-04-01T16:43:26.301Z,7.40
2018-04-01T16:45:53.659Z,7.70
2018-04-01T16:48:21.011Z,8.15
2018-04-01T16:50:48.368Z,7.35
2018-04-01T16:53:15.722Z,8.00
2018-04-01T16:55:43.078Z,11.93
2018-04-01T16:58:12.398Z,7.97
2018-04-01T17:00:41.277Z,7.95
2018-04-01T17:03:09.907Z,7.68
2018-04-01T17:05:39.156Z,7.07
2018-04-01T17:08:08.885Z,8.35
2018-04-01T17:10:36.097Z,8.27
2018-04-01T17:13:03.313Z,6.45
2018-04-01T17:15:31.341Z,7.70
2018-04-01T17:17:58.698Z,8.30
2018-04-01T17:20:26.258Z,8.07
2018-04-01T17:22:53.514Z,8.13
2018-04-01T17:25:20.871Z,7.68
2018-04-01T17:27:48.222Z,7.50
2018-04-01T17:30:16.397Z,7.53
2018-04-01T17:32:43.618Z,6.68
2018-04-01T17:35:10.833Z,7.90
2018-04-01T17:37:38.973Z,6.50
2018-04-01T17:40:06.329Z,7.15
2018-04-01T17:42:33.613Z,7.78
2018-04-01T17:45:01.594Z,8.40
2018-04-01T17:47:29.726Z,8.00
2018-04-01T17:49:57.080Z,7.30
2018-04-01T17:52:24.310Z,8.18
2018-04-01T17:54:51.539Z,8.30
2018-04-01T17:57:18.812Z,8.10
2018-04-01T17:59:46.030Z,7.72
2018-04-01T18:02:14.013Z,9.07
2018-04-01T18:04:41.231Z,8.27
2018-04-01T18:07:08.461Z,7.90
2018-04-01T18:09:35.681Z,8.10
2018-04-01T18:12:02.897Z,7.40
2018-04-01T18:14:32.184Z,8.50
2018-04-01T18:16:59.413Z,8.85
2018-04-01T18:19:26.638Z,9.00
2018-04-01T18:21:53.868Z,9.10
2018-04-01T18:24:21.894Z,8.48
2018-04-01T18:26:49.145Z,9.63
2018-04-01T18:29:16.380Z,8.65
2018-04-01T18:31:43.614Z,8.27
2018-04-01T18:34:10.873Z,8.00
2018-04-01T18:36:38.098Z,8.40
2018-04-01T18:39:06.077Z,7.60
2018-04-01T18:41:34.052Z,8.55
2018-04-01T18:44:01.277Z,8.85
2018-04-01T18:46:29.284Z,9.00
2018-04-01T18:48:56.518Z,9.15
2018-04-01T18:51:24.502Z,7.40
2018-04-01T18:53:51.730Z,8.43
2018-04-01T18:56:19.770Z,10.32
2018-04-01T18:58:47.233Z,12.43
2018-04-01T19:01:14.582Z,12.73
2018-04-01T19:03:41.939Z,11.65
2018-04-01T19:06:09.167Z,12.95
2018-04-01T19:08:36.389Z,11.95
2018-04-01T19:11:04.366Z,13.43
2018-04-01T19:13:31.577Z,12.13
2018-04-01T19:15:59.327Z,11.75
2018-04-01T19:18:27.050Z,11.70
2018-04-01T19:20:54.770Z,12.00
2018-04-01T19:23:22.625Z,12.30
2018-04-01T19:25:50.357Z,14.10
2018-04-01T19:28:18.088Z,12.27
2018-04-01T19:30:46.585Z,12.35
2018-04-01T19:33:14.306Z,13.43
2018-04-01T19:35:42.021Z,13.98
2018-04-01T19:38:09.781Z,16.12
2018-04-01T19:40:37.491Z,16.35
2018-04-01T19:43:05.209Z,14.87
2018-04-01T19:45:33.020Z,17.17
2018-04-01T19:48:00.887Z,15.63
2018-04-01T19:50:28.598Z,16.37
2018-04-01T19:52:57.126Z,16.90
2018-04-01T19:55:25.002Z,17.15
2018-04-01T19:57:52.868Z,16.15
2018-04-01T20:00:20.606Z,16.60
2018-04-01T20:02:48.355Z,17.10
2018-04-01T20:05:16.057Z,19.50
2018-04-01T20:07:43.845Z,18.23
2018-04-01T20:10:11.549Z,18.45
2018-04-01T20:12:39.259Z,18.50
2018-04-01T20:15:07.002Z,17.80
2018-04-01T20:17:34.723Z,18.40
2018-04-01T20:20:03.265Z,17.50
2018-04-01T20:22:31.133Z,17.40
2018-04-01T20:24:58.878Z,18.27
2018-04-01T20:27:26.595Z,18.85
2018-04-01T20:29:54.333Z,17.42
2018-04-01T20:32:22.042Z,18.60
2018-04-01T20:34:49.743Z,18.45
2018-04-01T20:37:17.622Z,19.08
2018-04-01T20:39:45.486Z,19.25
2018-04-01T20:42:13.252Z,18.90
2018-04-01T20:44:41.119Z,18.65
2018-04-01T20:47:08.826Z,19.15
2018-04-01T20:49:37.468Z,20.02
2018-04-01T20:52:05.187Z,20.50
2018-04-01T20:54:32.897Z,18.30
2018-04-01T20:57:00.610Z,19.12
2018-04-01T20:59:28.318Z,18.10
2018-04-01T21:01:56.038Z,17.98
2018-04-01T21:04:23.751Z,18.92
2018-04-01T21:06:51.524Z,18.67
2018-04-01T21:09:19.383Z,18.95
2018-04-01T21:11:47.251Z,18.95
2018-04-01T21:14:15.116Z,20.90
2018-04-01T21:16:42.995Z,19.95
2018-04-01T21:19:10.722Z,21.12
2018-04-01T21:21:38.436Z,20.55
2018-04-01T21:24:06.149Z,21.17
2018-04-01T21:26:33.862Z,21.62
2018-04-01T21:29:01.582Z,20.67
2018-04-01T21:31:29.300Z,22.20
2018-04-01T21:33:57.781Z,23.73
2018-04-01T21:36:26.264Z,21.15
2018-04-01T21:38:54.815Z,22.37
2018-04-01T21:41:22.526Z,22.58
2018-04-01T21:43:50.266Z,21.92
2018-04-01T21:46:18.832Z,21.90
2018-04-01T21:48:46.550Z,22.05
2018-04-01T21:51:14.257Z,22.75
2018-04-01T21:53:41.963Z,21.60
2018-04-01T21:56:10.448Z,21.25
2018-04-01T21:58:39.084Z,20.02
2018-04-01T22:01:06.952Z,20.80
2018-04-01T22:03:34.819Z,22.25
2018-04-01T22:06:02.686Z,21.02
2018-04-01T22:08:31.163Z,22.37
2018-04-01T22:10:58.878Z,23.25
2018-04-01T22:13:27.345Z,22.55
2018-04-01T22:15:55.822Z,23.65
2018-04-01T22:18:23.525Z,24.92
2018-04-01T22:20:51.238Z,23.00
2018-04-01T22:23:18.954Z,23.87
2018-04-01T22:25:46.702Z,25.08
2018-04-01T22:28:14.516Z,25.85
2018-04-01T22:30:42.230Z,24.40
2018-04-01T22:33:09.966Z,25.15
2018-04-01T22:35:37.714Z,24.50
2018-04-01T22:38:05.418Z,25.70
2018-04-01T22:40:33.889Z,25.02
2018-04-01T22:43:02.371Z,23.40
2018-04-01T22:45:30.917Z,24.08
2018-04-01T22:47:58.785Z,23.75
2018-04-01T22:50:26.522Z,22.85
2018-04-01T22:52:54.272Z,22.40
2018-04-01T22:55:22.183Z,22.60
2018-04-01T22:57:50.049Z,22.83
2018-04-01T23:00:17.918Z,21.98
2018-04-01T23:02:45.629Z,21.60
2018-04-01T23:05:14.102Z,23.35
2018-04-01T23:07:42.578Z,23.08
2018-04-01T23:10:11.231Z,20.55
2018-04-01T23:12:39.098Z,20.45
2018-04-01T23:15:06.964Z,23.12
2018-04-01T23:17:34.832Z,21.20
2018-04-01T23:20:02.700Z,23.00
2018-04-01T23:22:30.566Z,23.00
2018-04-01T23:24:58.433Z,23.52
2018-04-01T23:27:26.140Z,21.95
2018-04-01T23:29:54.627Z,23.92
2018-04-01T23:32:23.106Z,23.75
2018-04-01T23:34:51.590Z,21.75
2018-04-01T23:37:19.301Z,23.08
2018-04-01T23:39:47.022Z,22.20
2018-04-01T23:42:14.727Z,21.73
2018-04-01T23:44:42.438Z,24.10
2018-04-01T23:47:10.930Z,24.00
2018-04-01T23:49:38.669Z,23.45
2018-04-01T23:52:06.385Z,23.60
2018-04-01T23:54:34.099Z,23.83
2018-04-01T23:57:01.891Z,23.83
2018-04-01T23:59:29.703Z,23.12
